sensor_id;sensor_type;location;lat;lon;timestamp;pressure;altitude;pressure_sealevel;temperature;humidity
77110;BME280;66062;52.464;16.922;2024-02-15T00:01:42;100953.13;;;8.11;100.00
77110;BME280;66062;52.464;16.922;2024-02-15T00:04:08;100944.41;;;8.09;100.00
77110;BME280;66062;52.464;16.922;2024-02-15T00:06:33;100944.91;;;8.14;100.00
77110;BME280;66062;52.464;16.922;2024-02-15T00:08:58;100946.03;;;8.23;100.00
77110;BME280;66062;52.464;16.922;2024-02-15T00:11:24;100941.09;;;8.29;100.00
77110;BME280;66062;52.464;16.922;2024-02-15T00:13:49;100947.28;;;8.30;100.00
77110;BME280;66062;52.464;16.922;2024-02-15T00:16:15;100945.91;;;8.24;100.00
77110;BME280;66062;52.464;16.922;2024-02-15T00:18:40;100945.91;;;8.24;100.00
77110;BME280;66062;52.464;16.922;2024-02-15T00:21:06;100940.66;;;8.35;100.00
77110;BME280;66062;52.464;16.922;2024-02-15T00:23:31;100946.22;;;8.32;100.00
77110;BME280;66062;52.464;16.922;2024-02-15T00:25:58;100951.72;;;8.29;100.00
77110;BME280;66062;52.464;16.922;2024-02-15T00:28:23;100961.31;;;8.32;100.00
77110;BME280;66062;52.464;16.922;2024-02-15T00:30:49;100957.56;;;8.34;100.00
77110;BME280;66062;52.464;16.922;2024-02-15T00:33:15;100951.00;;;8.27;100.00
77110;BME280;66062;52.464;16.922;2024-02-15T00:35:41;100950.00;;;8.17;100.00
77110;BME280;66062;52.464;16.922;2024-02-15T00:38:07;100955.16;;;8.31;100.00
77110;BME280;66062;52.464;16.922;2024-02-15T00:40:32;100961.81;;;8.37;100.00
77110;BME280;66062;52.464;16.922;2024-02-15T00:42:58;100947.22;;;8.42;100.00
77110;BME280;66062;52.464;16.922;2024-02-15T00:45:23;100957.84;;;8.42;100.00
77110;BME280;66062;52.464;16.922;2024-02-15T00:47:49;100958.06;;;8.39;100.00
77110;BME280;66062;52.464;16.922;2024-02-15T00:50:15;100950.81;;;8.41;100.00
77110;BME280;66062;52.464;16.922;2024-02-15T00:52:40;100952.53;;;8.42;100.00
77110;BME280;66062;52.464;16.922;2024-02-15T00:55:05;100954.69;;;8.37;100.00
77110;BME280;66062;52.464;16.922;2024-02-15T00:57:31;100954.91;;;8.34;100.00
77110;BME280;66062;52.464;16.922;2024-02-15T00:59:57;100951.19;;;8.37;100.00
77110;BME280;66062;52.464;16.922;2024-02-15T01:02:22;100949.38;;;8.37;100.00
77110;BME280;66062;52.464;16.922;2024-02-15T01:04:51;100936.78;;;8.39;100.00
77110;BME280;66062;52.464;16.922;2024-02-15T01:07:18;100939.88;;;8.22;100.00
77110;BME280;66062;52.464;16.922;2024-02-15T01:09:43;100943.13;;;8.26;100.00
77110;BME280;66062;52.464;16.922;2024-02-15T01:12:10;100946.25;;;8.20;100.00
77110;BME280;66062;52.464;16.922;2024-02-15T01:14:36;100944.28;;;8.34;100.00
77110;BME280;66062;52.464;16.922;2024-02-15T01:17:02;100935.59;;;8.32;100.00
77110;BME280;66062;52.464;16.922;2024-02-15T01:19:27;100945.38;;;8.32;100.00
77110;BME280;66062;52.464;16.922;2024-02-15T01:21:53;100933.34;;;8.26;100.00
77110;BME280;66062;52.464;16.922;2024-02-15T01:24:19;100937.25;;;8.33;100.00
77110;BME280;66062;52.464;16.922;2024-02-15T01:26:44;100940.69;;;8.46;100.00
77110;BME280;66062;52.464;16.922;2024-02-15T01:29:09;100928.56;;;8.31;100.00
77110;BME280;66062;52.464;16.922;2024-02-15T01:31:37;100933.56;;;8.47;100.00
77110;BME280;66062;52.464;16.922;2024-02-15T01:34:04;100936.22;;;8.47;100.00
77110;BME280;66062;52.464;16.922;2024-02-15T01:36:29;100935.09;;;8.49;100.00
77110;BME280;66062;52.464;16.922;2024-02-15T01:38:54;100935.16;;;8.26;100.00
77110;BME280;66062;52.464;16.922;2024-02-15T01:41:20;100926.16;;;8.39;100.00
77110;BME280;66062;52.464;16.922;2024-02-15T01:43:45;100920.84;;;8.39;100.00
77110;BME280;66062;52.464;16.922;2024-02-15T01:46:12;100931.59;;;8.49;100.00
77110;BME280;66062;52.464;16.922;2024-02-15T01:48:40;100918.66;;;8.44;100.00
77110;BME280;66062;52.464;16.922;2024-02-15T01:51:11;100921.31;;;8.44;100.00
77110;BME280;66062;52.464;16.922;2024-02-15T01:53:38;100917.94;;;8.31;100.00
77110;BME280;66062;52.464;16.922;2024-02-15T01:56:06;100916.63;;;8.48;100.00
77110;BME280;66062;52.464;16.922;2024-02-15T01:58:32;100913.97;;;8.48;100.00
77110;BME280;66062;52.464;16.922;2024-02-15T02:00:59;100910.59;;;8.57;100.00
77110;BME280;66062;52.464;16.922;2024-02-15T02:03:25;100914.81;;;8.59;100.00
77110;BME280;66062;52.464;16.922;2024-02-15T02:05:51;100911.03;;;8.40;100.00
77110;BME280;66062;52.464;16.922;2024-02-15T02:08:16;100909.00;;;8.54;100.00
77110;BME280;66062;52.464;16.922;2024-02-15T02:10:42;100915.78;;;8.58;100.00
77110;BME280;66062;52.464;16.922;2024-02-15T02:13:08;100903.31;;;8.37;100.00
77110;BME280;66062;52.464;16.922;2024-02-15T02:15:36;100904.63;;;8.31;100.00
77110;BME280;66062;52.464;16.922;2024-02-15T02:18:03;100908.03;;;8.55;100.00
77110;BME280;66062;52.464;16.922;2024-02-15T02:20:32;100906.34;;;8.66;100.00
77110;BME280;66062;52.464;16.922;2024-02-15T02:23:16;100910.44;;;8.58;100.00
77110;BME280;66062;52.464;16.922;2024-02-15T02:25:44;100912.16;;;8.71;100.00
77110;BME280;66062;52.464;16.922;2024-02-15T02:28:09;100902.72;;;8.67;100.00
77110;BME280;66062;52.464;16.922;2024-02-15T02:30:35;100912.88;;;8.84;100.00
77110;BME280;66062;52.464;16.922;2024-02-15T02:33:01;100910.94;;;8.75;100.00
77110;BME280;66062;52.464;16.922;2024-02-15T02:35:27;100904.28;;;8.80;100.00
77110;BME280;66062;52.464;16.922;2024-02-15T02:37:56;100905.88;;;8.83;100.00
77110;BME280;66062;52.464;16.922;2024-02-15T02:40:22;100905.38;;;8.89;100.00
77110;BME280;66062;52.464;16.922;2024-02-15T02:42:54;100898.97;;;8.80;100.00
77110;BME280;66062;52.464;16.922;2024-02-15T02:45:21;100906.25;;;8.67;100.00
77110;BME280;66062;52.464;16.922;2024-02-15T02:47:50;100902.72;;;8.67;100.00
77110;BME280;66062;52.464;16.922;2024-02-15T02:50:16;100908.06;;;8.67;100.00
77110;BME280;66062;52.464;16.922;2024-02-15T02:52:43;100902.00;;;8.76;100.00
77110;BME280;66062;52.464;16.922;2024-02-15T02:55:09;100903.81;;;8.75;100.00
77110;BME280;66062;52.464;16.922;2024-02-15T02:57:35;100911.69;;;8.77;100.00
77110;BME280;66062;52.464;16.922;2024-02-15T03:00:06;100906.22;;;8.45;100.00
77110;BME280;66062;52.464;16.922;2024-02-15T03:02:37;100908.78;;;8.57;100.00
77110;BME280;66062;52.464;16.922;2024-02-15T03:05:06;100902.72;;;8.55;100.00
77110;BME280;66062;52.464;16.922;2024-02-15T03:07:33;100902.13;;;8.63;100.00
77110;BME280;66062;52.464;16.922;2024-02-15T03:10:03;100906.59;;;8.63;100.00
77110;BME280;66062;52.464;16.922;2024-02-15T03:12:37;100904.66;;;8.76;100.00
77110;BME280;66062;52.464;16.922;2024-02-15T03:15:07;100898.47;;;8.64;100.00
77110;BME280;66062;52.464;16.922;2024-02-15T03:17:42;100898.25;;;8.67;100.00
77110;BME280;66062;52.464;16.922;2024-02-15T03:20:09;100901.03;;;8.77;100.00
77110;BME280;66062;52.464;16.922;2024-02-15T03:25:21;100906.22;;;8.89;100.00
77110;BME280;66062;52.464;16.922;2024-02-15T03:27:49;100911.19;;;8.94;100.00
77110;BME280;66062;52.464;16.922;2024-02-15T03:30:20;100906.09;;;8.91;100.00
77110;BME280;66062;52.464;16.922;2024-02-15T03:32:46;100903.81;;;8.97;100.00
77110;BME280;66062;52.464;16.922;2024-02-15T03:35:15;100905.38;;;8.89;100.00
77110;BME280;66062;52.464;16.922;2024-02-15T03:37:40;100909.50;;;8.93;100.00
77110;BME280;66062;52.464;16.922;2024-02-15T03:40:07;100912.66;;;8.76;100.00
77110;BME280;66062;52.464;16.922;2024-02-15T03:42:34;100909.72;;;8.79;100.00
77110;BME280;66062;52.464;16.922;2024-02-15T03:45:04;100915.66;;;8.60;100.00
77110;BME280;66062;52.464;16.922;2024-02-15T03:47:34;100913.38;;;8.78;100.00
77110;BME280;66062;52.464;16.922;2024-02-15T03:50:02;100915.31;;;8.87;100.00
77110;BME280;66062;52.464;16.922;2024-02-15T03:52:27;100912.75;;;8.85;100.00
77110;BME280;66062;52.464;16.922;2024-02-15T03:54:55;100923.66;;;8.82;100.00
77110;BME280;66062;52.464;16.922;2024-02-15T03:57:20;100917.59;;;8.91;100.00
77110;BME280;66062;52.464;16.922;2024-02-15T03:59:46;100919.44;;;8.57;100.00
77110;BME280;66062;52.464;16.922;2024-02-15T04:02:16;100912.28;;;8.58;100.00
77110;BME280;66062;52.464;16.922;2024-02-15T04:04:41;100914.47;;;8.75;100.00
77110;BME280;66062;52.464;16.922;2024-02-15T04:07:08;100914.94;;;8.80;100.00
77110;BME280;66062;52.464;16.922;2024-02-15T04:09:35;100914.09;;;8.80;100.00
77110;BME280;66062;52.464;16.922;2024-02-15T04:12:02;100912.75;;;8.85;100.00
77110;BME280;66062;52.464;16.922;2024-02-15T04:14:27;100916.53;;;8.83;100.00
77110;BME280;66062;52.464;16.922;2024-02-15T04:16:53;100910.00;;;8.87;100.00
77110;BME280;66062;52.464;16.922;2024-02-15T04:19:18;100906.84;;;8.93;100.00
77110;BME280;66062;52.464;16.922;2024-02-15T04:21:47;100913.13;;;8.92;100.00
77110;BME280;66062;52.464;16.922;2024-02-15T04:24:13;100909.25;;;8.96;100.00
77110;BME280;66062;52.464;16.922;2024-02-15T04:26:39;100908.03;;;8.89;100.00
77110;BME280;66062;52.464;16.922;2024-02-15T04:29:05;100909.50;;;8.93;100.00
77110;BME280;66062;52.464;16.922;2024-02-15T04:31:33;100903.56;;;8.89;100.00
77110;BME280;66062;52.464;16.922;2024-02-15T04:34:02;100909.13;;;8.97;100.00
77110;BME280;66062;52.464;16.922;2024-02-15T04:36:28;100909.97;;;8.65;100.00
77110;BME280;66062;52.464;16.922;2024-02-15T04:38:59;100916.63;;;8.59;100.00
77110;BME280;66062;52.464;16.922;2024-02-15T04:41:25;100916.25;;;8.75;100.00
77110;BME280;66062;52.464;16.922;2024-02-15T04:43:50;100919.06;;;8.73;100.00
77110;BME280;66062;52.464;16.922;2024-02-15T04:46:17;100915.69;;;8.71;100.00
77110;BME280;66062;52.464;16.922;2024-02-15T04:48:46;100913.38;;;8.78;100.00
77110;BME280;66062;52.464;16.922;2024-02-15T04:51:11;100914.84;;;8.82;100.00
77110;BME280;66062;52.464;16.922;2024-02-15T04:53:37;100916.03;;;8.78;100.00
77110;BME280;66062;52.464;16.922;2024-02-15T04:56:07;100919.66;;;8.77;100.00
77110;BME280;66062;52.464;16.922;2024-02-15T04:58:39;100926.22;;;8.73;100.00
77110;BME280;66062;52.464;16.922;2024-02-15T05:01:12;100924.41;;;8.73;100.00
77110;BME280;66062;52.464;16.922;2024-02-15T05:03:38;100926.03;;;8.41;100.00
77110;BME280;66062;52.464;16.922;2024-02-15T05:06:03;100922.78;;;8.59;100.00
77110;BME280;66062;52.464;16.922;2024-02-15T05:08:34;100927.50;;;8.56;100.00
77110;BME280;66062;52.464;16.922;2024-02-15T05:11:11;100922.31;;;8.66;100.00
77110;BME280;66062;52.464;16.922;2024-02-15T05:13:46;100927.91;;;8.63;100.00
77110;BME280;66062;52.464;16.922;2024-02-15T05:16:12;100920.50;;;8.66;100.00
77110;BME280;66062;52.464;16.922;2024-02-15T05:18:38;100919.28;;;8.70;100.00
77110;BME280;66062;52.464;16.922;2024-02-15T05:21:05;100925.47;;;8.71;100.00
77110;BME280;66062;52.464;16.922;2024-02-15T05:23:38;100916.75;;;8.69;100.00
77110;BME280;66062;52.464;16.922;2024-02-15T05:26:08;100918.81;;;8.76;100.00
77110;BME280;66062;52.464;16.922;2024-02-15T05:28:34;100926.91;;;8.64;100.00
77110;BME280;66062;52.464;16.922;2024-02-15T05:31:18;100924.63;;;8.70;100.00
77110;BME280;66062;52.464;16.922;2024-02-15T05:33:46;100926.22;;;8.73;100.00
77110;BME280;66062;52.464;16.922;2024-02-15T05:36:19;100926.19;;;8.84;100.00
77110;BME280;66062;52.464;16.922;2024-02-15T05:38:46;100914.56;;;8.85;100.00
77110;BME280;66062;52.464;16.922;2024-02-15T05:41:11;100920.63;;;8.87;100.00
77110;BME280;66062;52.464;16.922;2024-02-15T05:43:38;100918.72;;;8.78;100.00
77110;BME280;66062;52.464;16.922;2024-02-15T05:46:04;100921.97;;;8.92;100.00
77110;BME280;66062;52.464;16.922;2024-02-15T05:48:32;100925.00;;;8.88;100.00
77110;BME280;66062;52.464;16.922;2024-02-15T05:51:00;100918.09;;;8.85;100.00
77110;BME280;66062;52.464;16.922;2024-02-15T05:53:26;100923.53;;;8.95;100.00
77110;BME280;66062;52.464;16.922;2024-02-15T05:55:52;100916.38;;;8.95;100.00
77110;BME280;66062;52.464;16.922;2024-02-15T05:58:17;100921.81;;;8.94;100.00
77110;BME280;66062;52.464;16.922;2024-02-15T06:00:43;100923.28;;;8.98;100.00
77110;BME280;66062;52.464;16.922;2024-02-15T06:03:15;100922.56;;;8.96;100.00
77110;BME280;66062;52.464;16.922;2024-02-15T06:05:40;100922.78;;;9.04;100.00
77110;BME280;66062;52.464;16.922;2024-02-15T06:08:06;100919.63;;;8.99;100.00
77110;BME280;66062;52.464;16.922;2024-02-15T06:10:32;100925.13;;;8.97;100.00
77110;BME280;66062;52.464;16.922;2024-02-15T06:12:57;100932.94;;;8.99;100.00
77110;BME280;66062;52.464;16.922;2024-02-15T06:15:26;100926.44;;;9.03;100.00
77110;BME280;66062;52.464;16.922;2024-02-15T06:17:52;100931.41;;;8.96;100.00
77110;BME280;66062;52.464;16.922;2024-02-15T06:20:18;100931.28;;;8.98;100.00
77110;BME280;66062;52.464;16.922;2024-02-15T06:22:48;100935.28;;;9.04;100.00
77110;BME280;66062;52.464;16.922;2024-02-15T06:25:14;100943.84;;;9.07;100.00
77110;BME280;66062;52.464;16.922;2024-02-15T06:27:40;100944.34;;;8.90;100.00
77110;BME280;66062;52.464;16.922;2024-02-15T06:30:11;100954.13;;;9.00;100.00
77110;BME280;66062;52.464;16.922;2024-02-15T06:32:56;100949.91;;;8.98;100.00
77110;BME280;66062;52.464;16.922;2024-02-15T06:35:40;100952.81;;;8.95;100.00
77110;BME280;66062;52.464;16.922;2024-02-15T06:38:24;100946.78;;;8.93;100.00
77110;BME280;66062;52.464;16.922;2024-02-15T06:41:08;100950.16;;;8.95;100.00
77110;BME280;66062;52.464;16.922;2024-02-15T06:43:35;100951.72;;;9.09;100.00
77110;BME280;66062;52.464;16.922;2024-02-15T06:46:01;100950.63;;;9.11;100.00
77110;BME280;66062;52.464;16.922;2024-02-15T06:48:28;100955.72;;;9.14;100.00
77110;BME280;66062;52.464;16.922;2024-02-15T06:50:53;100953.28;;;9.11;100.00
77110;BME280;66062;52.464;16.922;2024-02-15T06:53:19;100956.81;;;9.12;100.00
77110;BME280;66062;52.464;16.922;2024-02-15T06:55:48;100945.31;;;9.11;100.00
77110;BME280;66062;52.464;16.922;2024-02-15T06:58:15;100944.81;;;9.17;100.00
77110;BME280;66062;52.464;16.922;2024-02-15T07:00:42;100951.84;;;9.18;100.00
77110;BME280;66062;52.464;16.922;2024-02-15T07:03:08;100948.69;;;9.13;100.00
77110;BME280;66062;52.464;16.922;2024-02-15T07:05:35;100946.75;;;9.26;100.00
77110;BME280;66062;52.464;16.922;2024-02-15T07:08:01;100941.78;;;9.33;100.00
77110;BME280;66062;52.464;16.922;2024-02-15T07:10:26;100949.22;;;9.50;100.00
77110;BME280;66062;52.464;16.922;2024-02-15T07:12:52;100953.88;;;9.26;100.00
77110;BME280;66062;52.464;16.922;2024-02-15T07:15:17;100954.22;;;9.43;100.00
77110;BME280;66062;52.464;16.922;2024-02-15T07:17:43;100958.16;;;9.60;100.00
77110;BME280;66062;52.464;16.922;2024-02-15T07:20:12;100961.69;;;9.61;100.00
77110;BME280;66062;52.464;16.922;2024-02-15T07:22:43;100965.09;;;9.52;100.00
77110;BME280;66062;52.464;16.922;2024-02-15T07:25:09;100958.81;;;9.41;100.00
77110;BME280;66062;52.464;16.922;2024-02-15T07:27:35;100962.72;;;9.37;100.00
77110;BME280;66062;52.464;16.922;2024-02-15T07:30:01;100967.75;;;9.63;100.00
77110;BME280;66062;52.464;16.922;2024-02-15T07:32:29;100966.63;;;9.65;100.00
77110;BME280;66062;52.464;16.922;2024-02-15T07:34:56;100960.94;;;9.70;100.00
77110;BME280;66062;52.464;16.922;2024-02-15T07:37:22;100969.88;;;9.80;100.00
77110;BME280;66062;52.464;16.922;2024-02-15T07:39:52;100968.31;;;9.77;100.00
77110;BME280;66062;52.464;16.922;2024-02-15T07:42:17;100969.44;;;9.64;100.00
77110;BME280;66062;52.464;16.922;2024-02-15T07:44:43;100971.09;;;9.76;100.00
77110;BME280;66062;52.464;16.922;2024-02-15T07:47:08;100972.75;;;9.88;100.00
77110;BME280;66062;52.464;16.922;2024-02-15T07:49:36;100967.50;;;9.98;100.00
77110;BME280;66062;52.464;16.922;2024-02-15T07:52:02;100973.34;;;9.92;100.00
77110;BME280;66062;52.464;16.922;2024-02-15T07:54:29;100969.44;;;9.96;100.00
77110;BME280;66062;52.464;16.922;2024-02-15T07:56:56;100974.94;;;9.83;100.00
77110;BME280;66062;52.464;16.922;2024-02-15T07:59:23;100978.16;;;9.98;100.00
77110;BME280;66062;52.464;16.922;2024-02-15T08:01:49;100970.59;;;10.14;100.00
77110;BME280;66062;52.464;16.922;2024-02-15T08:04:19;100966.78;;;9.96;100.00
77110;BME280;66062;52.464;16.922;2024-02-15T08:06:45;100975.63;;;9.96;100.00
77110;BME280;66062;52.464;16.922;2024-02-15T08:09:10;100965.56;;;10.00;100.00
77110;BME280;66062;52.464;16.922;2024-02-15T08:11:42;100978.88;;;10.32;100.00
77110;BME280;66062;52.464;16.922;2024-02-15T08:14:07;100987.84;;;10.10;100.00
77110;BME280;66062;52.464;16.922;2024-02-15T08:16:36;100976.03;;;9.80;100.00
77110;BME280;66062;52.464;16.922;2024-02-15T08:19:03;100967.38;;;9.99;100.00
77110;BME280;66062;52.464;16.922;2024-02-15T08:21:31;100969.28;;;10.08;100.00
77110;BME280;66062;52.464;16.922;2024-02-15T08:24:04;100979.22;;;10.17;100.00
77110;BME280;66062;52.464;16.922;2024-02-15T08:26:38;100978.84;;;9.79;100.00
77110;BME280;66062;52.464;16.922;2024-02-15T08:29:04;100980.22;;;10.05;100.00
77110;BME280;66062;52.464;16.922;2024-02-15T08:31:29;100981.47;;;10.22;100.00
77110;BME280;66062;52.464;16.922;2024-02-15T08:34:02;100979.44;;;10.25;100.00
77110;BME280;66062;52.464;16.922;2024-02-15T08:36:27;100984.00;;;9.92;100.00
77110;BME280;66062;52.464;16.922;2024-02-15T08:38:55;100977.72;;;10.24;100.00
77110;BME280;66062;52.464;16.922;2024-02-15T08:41:21;100984.16;;;10.43;100.00
77110;BME280;66062;52.464;16.922;2024-02-15T08:43:48;100978.59;;;10.46;100.00
77110;BME280;66062;52.464;16.922;2024-02-15T08:46:14;100984.88;;;10.24;100.00
77110;BME280;66062;52.464;16.922;2024-02-15T08:48:40;100988.94;;;10.39;100.00
77110;BME280;66062;52.464;16.922;2024-02-15T08:51:06;100983.03;;;10.56;100.00
77110;BME280;66062;52.464;16.922;2024-02-15T08:53:34;100987.28;;;10.68;100.00
77110;BME280;66062;52.464;16.922;2024-02-15T08:56:02;100993.31;;;10.61;100.00
77110;BME280;66062;52.464;16.922;2024-02-15T08:58:28;100983.47;;;10.61;100.00
77110;BME280;66062;52.464;16.922;2024-02-15T09:00:55;100985.19;;;10.72;100.00
77110;BME280;66062;52.464;16.922;2024-02-15T09:03:21;100986.31;;;10.69;100.00
77110;BME280;66062;52.464;16.922;2024-02-15T09:05:47;100990.16;;;10.77;100.00
77110;BME280;66062;52.464;16.922;2024-02-15T09:08:13;100986.44;;;10.89;100.00
77110;BME280;66062;52.464;16.922;2024-02-15T09:10:41;100979.31;;;10.99;100.00
77110;BME280;66062;52.464;16.922;2024-02-15T09:13:08;100981.34;;;11.16;99.97
77110;BME280;66062;52.464;16.922;2024-02-15T09:15:33;100976.22;;;11.34;99.38
77110;BME280;66062;52.464;16.922;2024-02-15T09:17:59;100973.72;;;11.42;98.66
77110;BME280;66062;52.464;16.922;2024-02-15T09:20:26;100966.06;;;11.28;98.67
77110;BME280;66062;52.464;16.922;2024-02-15T09:22:54;100972.41;;;11.27;99.08
77110;BME280;66062;52.464;16.922;2024-02-15T09:25:21;100972.81;;;11.22;99.58
77110;BME280;66062;52.464;16.922;2024-02-15T09:27:50;100977.53;;;11.09;100.00
77110;BME280;66062;52.464;16.922;2024-02-15T09:30:17;100980.25;;;10.47;100.00
77110;BME280;66062;52.464;16.922;2024-02-15T09:32:43;100979.13;;;10.91;100.00
77110;BME280;66062;52.464;16.922;2024-02-15T09:35:10;100981.72;;;11.02;100.00
77110;BME280;66062;52.464;16.922;2024-02-15T09:37:47;100980.66;;;11.24;100.00
77110;BME280;66062;52.464;16.922;2024-02-15T09:40:18;100979.41;;;11.28;100.00
77110;BME280;66062;52.464;16.922;2024-02-15T09:42:44;100983.44;;;11.12;100.00
77110;BME280;66062;52.464;16.922;2024-02-15T09:45:14;100976.19;;;11.24;100.00
77110;BME280;66062;52.464;16.922;2024-02-15T09:47:40;100981.28;;;11.27;100.00
77110;BME280;66062;52.464;16.922;2024-02-15T09:50:07;100985.94;;;11.04;100.00
77110;BME280;66062;52.464;16.922;2024-02-15T09:52:36;100972.22;;;11.19;100.00
77110;BME280;66062;52.464;16.922;2024-02-15T09:55:04;100989.06;;;11.09;100.00
77110;BME280;66062;52.464;16.922;2024-02-15T09:57:33;100986.91;;;11.03;100.00
77110;BME280;66062;52.464;16.922;2024-02-15T10:00:00;100978.44;;;11.29;100.00
77110;BME280;66062;52.464;16.922;2024-02-15T10:02:40;100982.47;;;11.13;100.00
77110;BME280;66062;52.464;16.922;2024-02-15T10:05:07;100986.38;;;11.09;100.00
77110;BME280;66062;52.464;16.922;2024-02-15T10:07:40;100976.75;;;11.28;100.00
77110;BME280;66062;52.464;16.922;2024-02-15T10:10:20;100982.06;;;11.18;100.00
77110;BME280;66062;52.464;16.922;2024-02-15T10:12:47;100976.53;;;11.50;100.00
77110;BME280;66062;52.464;16.922;2024-02-15T10:17:59;100976.75;;;10.97;100.00
77110;BME280;66062;52.464;16.922;2024-02-15T10:20:25;100967.66;;;11.49;100.00
77110;BME280;66062;52.464;16.922;2024-02-15T10:25:28;100976.09;;;11.45;100.00
77110;BME280;66062;52.464;16.922;2024-02-15T10:28:07;100967.06;;;11.86;100.00
77110;BME280;66062;52.464;16.922;2024-02-15T10:30:36;100963.41;;;12.06;98.67
77110;BME280;66062;52.464;16.922;2024-02-15T10:33:06;100968.88;;;11.26;100.00
77110;BME280;66062;52.464;16.922;2024-02-15T10:35:35;100966.72;;;11.60;100.00
77110;BME280;66062;52.464;16.922;2024-02-15T10:38:09;100973.69;;;11.32;100.00
77110;BME280;66062;52.464;16.922;2024-02-15T10:40:38;100968.53;;;11.50;100.00
77110;BME280;66062;52.464;16.922;2024-02-15T10:43:14;100969.38;;;11.10;100.00
77110;BME280;66062;52.464;16.922;2024-02-15T10:45:42;100972.53;;;11.25;100.00
77110;BME280;66062;52.464;16.922;2024-02-15T10:48:08;100974.00;;;11.08;100.00
77110;BME280;66062;52.464;16.922;2024-02-15T10:50:34;100958.72;;;11.20;100.00
77110;BME280;66062;52.464;16.922;2024-02-15T10:56:04;100971.09;;;11.61;100.00
77110;BME280;66062;52.464;16.922;2024-02-15T10:58:42;100970.00;;;11.33;100.00
77110;BME280;66062;52.464;16.922;2024-02-15T11:01:12;100970.00;;;11.33;100.00
77110;BME280;66062;52.464;16.922;2024-02-15T11:03:51;100969.84;;;10.85;100.00
77110;BME280;66062;52.464;16.922;2024-02-15T11:06:22;100965.53;;;11.03;100.00
77110;BME280;66062;52.464;16.922;2024-02-15T11:08:50;100966.63;;;10.91;100.00
77110;BME280;66062;52.464;16.922;2024-02-15T11:11:16;100969.75;;;11.36;100.00
77110;BME280;66062;52.464;16.922;2024-02-15T11:13:43;100957.28;;;11.56;100.00
77110;BME280;66062;52.464;16.922;2024-02-15T11:16:09;100953.97;;;11.73;100.00
77110;BME280;66062;52.464;16.922;2024-02-15T11:18:49;100961.06;;;11.63;100.00
77110;BME280;66062;52.464;16.922;2024-02-15T11:21:17;62074.47;;;-144.03;100.00
77110;BME280;66062;52.464;16.922;2024-02-15T11:23:43;62074.47;;;-144.03;100.00
77110;BME280;66062;52.464;16.922;2024-02-15T11:26:42;62074.47;;;-144.03;100.00
77110;BME280;66062;52.464;16.922;2024-02-15T11:28:56;62074.47;;;-144.03;100.00
77110;BME280;66062;52.464;16.922;2024-02-15T11:31:53;62074.47;;;-144.03;100.00
77110;BME280;66062;52.464;16.922;2024-02-15T11:34:43;62074.47;;;-144.03;100.00
77110;BME280;66062;52.464;16.922;2024-02-15T11:41:00;62074.47;;;-144.03;100.00
77110;BME280;66062;52.464;16.922;2024-02-15T11:46:08;62074.47;;;-144.03;100.00
77110;BME280;66062;52.464;16.922;2024-02-15T11:48:36;62074.47;;;-144.03;100.00
77110;BME280;66062;52.464;16.922;2024-02-15T11:51:05;62074.47;;;-144.03;100.00
77110;BME280;66062;52.464;16.922;2024-02-15T11:53:32;62074.47;;;-144.03;100.00
77110;BME280;66062;52.464;16.922;2024-02-15T11:56:01;62074.47;;;-144.03;100.00
77110;BME280;66062;52.464;16.922;2024-02-15T11:58:31;62074.47;;;-144.03;100.00
77110;BME280;66062;52.464;16.922;2024-02-15T12:01:17;62074.47;;;-144.03;100.00
77110;BME280;66062;52.464;16.922;2024-02-15T12:04:02;62074.47;;;-144.03;100.00
77110;BME280;66062;52.464;16.922;2024-02-15T12:06:46;62074.47;;;-144.03;100.00
77110;BME280;66062;52.464;16.922;2024-02-15T12:09:30;62074.47;;;-144.03;100.00
77110;BME280;66062;52.464;16.922;2024-02-15T12:12:14;62074.47;;;-144.03;100.00
77110;BME280;66062;52.464;16.922;2024-02-15T12:15:07;62074.47;;;-144.03;100.00
77110;BME280;66062;52.464;16.922;2024-02-15T12:17:52;62074.47;;;-144.03;100.00
77110;BME280;66062;52.464;16.922;2024-02-15T12:20:35;62074.47;;;-144.03;100.00
77110;BME280;66062;52.464;16.922;2024-02-15T12:23:01;62074.47;;;-144.03;100.00
77110;BME280;66062;52.464;16.922;2024-02-15T12:25:27;62074.47;;;-144.03;100.00
77110;BME280;66062;52.464;16.922;2024-02-15T12:27:54;62074.47;;;-144.03;100.00
77110;BME280;66062;52.464;16.922;2024-02-15T12:30:20;62074.47;;;-144.03;100.00
77110;BME280;66062;52.464;16.922;2024-02-15T12:32:50;62074.47;;;-144.03;100.00
77110;BME280;66062;52.464;16.922;2024-02-15T12:35:19;62074.47;;;-144.03;100.00
77110;BME280;66062;52.464;16.922;2024-02-15T12:37:46;62074.47;;;-144.03;100.00
77110;BME280;66062;52.464;16.922;2024-02-15T12:40:12;62074.47;;;-144.03;100.00
77110;BME280;66062;52.464;16.922;2024-02-15T12:42:42;62074.47;;;-144.03;100.00
77110;BME280;66062;52.464;16.922;2024-02-15T12:45:17;62074.47;;;-144.03;100.00
77110;BME280;66062;52.464;16.922;2024-02-15T12:47:56;62074.47;;;-144.03;100.00
77110;BME280;66062;52.464;16.922;2024-02-15T12:50:23;62074.47;;;-144.03;100.00
77110;BME280;66062;52.464;16.922;2024-02-15T12:52:53;62074.47;;;-144.03;100.00
77110;BME280;66062;52.464;16.922;2024-02-15T12:55:22;62074.47;;;-144.03;100.00
77110;BME280;66062;52.464;16.922;2024-02-15T12:57:53;62074.47;;;-144.03;100.00
77110;BME280;66062;52.464;16.922;2024-02-15T13:00:22;62074.47;;;-144.03;100.00